Sensation — C6FM8 — position and weather

sailwx.info

Track history (hours):
 
Tides and Currents Weather Stations Pressure Air Temp Water Temp Dewpoint Dewpoint Depression Visibility Wind Speed Wind Dir Waves Ship Positions

Sensation

Last reported at 2019-Feb-18 06:00 UTC. Time now 2019-Feb-20 18:24 UTC.
Position N 20°24' W 072°48'.

Type: Ship. MMSI: 309697000.

Wind from 080 at 25 knots

Barometer 1017.4 mb
Air temperature 25.0 ° C
Visibility: greater than 5.4 NM
Dewpoint 23.6 ° C

Date/timePositionNaut miles runAvg speedWind from/ knotsBaromVisibWave heightAir tempDewpointWater temp
2019-Feb-18 06:00N 20°24' W 072°48'30217.8 080 / 251017.4 5.4 25.023.6
2019-Feb-17 13:00N 22°18' W 077°48'7418.5 130 / 151011.710.8 25.022.224.0
2019-Feb-17 09:00N 23°00' W 078°54'14816.5 130 / 161013.727.0 25.023.6
2019-Feb-17 00:03N 25°22' W 079°38'116.4
2019-Feb-17 00:00N 25°23' W 079°38'816.0
2019-Feb-16 23:30N 25°30' W 079°41'815.5
2019-Feb-16 23:01N 25°37' W 079°45'816.3
2019-Feb-16 22:31N 25°41' W 079°53'815.4
2019-Feb-16 22:01N 25°45' W 080°01'510.5
2019-Feb-16 21:31N 25°46' W 080°06'4 7.4
2019-Feb-16 21:00N 25°47' W 080°10'0 0.3
2019-Feb-16 20:30N 25°47' W 080°10'0 0.1
2019-Feb-16 20:00N 25°47' W 080°10'0 0.0
2019-Feb-16 19:30N 25°47' W 080°10'0 0.0
2019-Feb-16 18:58N 25°47' W 080°10'0 0.0
2019-Feb-16 18:28N 25°47' W 080°10'0 0.0
2019-Feb-16 17:58N 25°47' W 080°10'0 0.0
2019-Feb-16 17:28N 25°47' W 080°10'0 0.0
2019-Feb-16 16:58N 25°47' W 080°10'0 0.0
2019-Feb-16 16:28N 25°47' W 080°10'0 0.0
2019-Feb-16 15:58N 25°47' W 080°10'0 0.0
2019-Feb-16 15:28N 25°47' W 080°10'0 0.0
2019-Feb-16 14:58N 25°47' W 080°10'0 0.0
2019-Feb-16 14:28N 25°47' W 080°10'0 0.0
2019-Feb-16 13:58N 25°47' W 080°10'0 0.0
2019-Feb-16 13:28N 25°47' W 080°10'0 0.0
2019-Feb-16 12:58N 25°47' W 080°10'0 0.0
2019-Feb-16 12:28N 25°47' W 080°10'0 0.0
2019-Feb-16 11:49N 25°47' W 080°10'0 0.0
2019-Feb-16 11:28N 25°47' W 080°10'0 0.1
2019-Feb-16 11:00N 25°47' W 080°10'2 3.3
2019-Feb-16 10:30N 25°46' W 080°09'611.7
2019-Feb-16 10:00N 25°46' W 080°02'510.6
2019-Feb-16 09:30N 25°43' W 079°58'611.6
2019-Feb-16 09:00N 25°37' W 079°56'815.1
2019-Feb-16 08:30N 25°30' W 079°56'815.1
2019-Feb-16 08:00N 25°22' W 079°56'815.5
2019-Feb-16 07:30N 25°14' W 079°58'1019.7
2019-Feb-16 07:00N 25°05' W 080°00'32818.2
2019-Feb-15 13:00N 22°06' W 085°00'51510.5 120 / 181009.110.8 24.021.125.0
2019-Feb-13 12:00N 18°42' W 076°36'43012.1 120 / 251010.310.8 26.023.225.0
2019-Feb-12 00:21N 25°18' W 079°37'515.6
2019-Feb-12 00:00N 25°23' W 079°38'815.3
2019-Feb-11 23:30N 25°30' W 079°40'714.8
2019-Feb-11 23:00N 25°36' W 079°45'815.9
2019-Feb-11 22:30N 25°40' W 079°52'815.4
2019-Feb-11 22:00N 25°44' W 079°60'510.9
2019-Feb-11 21:31N 25°46' W 080°05'4 8.5
2019-Feb-11 21:01N 25°47' W 080°10'0 0.1
2019-Feb-11 20:25N 25°47' W 080°10'0 0.0
2019-Feb-11 19:58N 25°47' W 080°10'0 0.0
2019-Feb-11 19:28N 25°47' W 080°10'0 0.0
2019-Feb-11 18:58N 25°47' W 080°10'0 0.0
2019-Feb-11 18:28N 25°47' W 080°10'0 0.0
2019-Feb-11 17:58N 25°47' W 080°10'0 0.0
2019-Feb-11 17:28N 25°47' W 080°10'0 0.0
2019-Feb-11 16:58N 25°47' W 080°10'0 0.0
2019-Feb-11 16:28N 25°47' W 080°10'0 0.0
2019-Feb-11 15:58N 25°47' W 080°10'0 0.0
2019-Feb-11 15:28N 25°47' W 080°10'0 0.0
2019-Feb-11 14:58N 25°47' W 080°10'0 0.0
2019-Feb-11 14:28N 25°47' W 080°10'0 0.0
2019-Feb-11 13:58N 25°47' W 080°10'0 0.0
2019-Feb-11 13:28N 25°47' W 080°10'0 0.0
2019-Feb-11 12:58N 25°47' W 080°10'0 0.0
2019-Feb-11 12:28N 25°47' W 080°10'0 0.1
2019-Feb-11 12:01N 25°47' W 080°10'0 0.5
2019-Feb-11 11:30N 25°47' W 080°10'4 8.3
2019-Feb-11 11:00N 25°46' W 080°05'4 7.7
2019-Feb-11 10:31N 25°46' W 080°01'5 9.1
2019-Feb-11 10:00N 25°47' W 079°56'5 9.9
2019-Feb-11 09:30N 25°47' W 079°51'510.7
2019-Feb-11 09:00N 25°47' W 079°45'5 9.5
2019-Feb-11 08:30N 25°50' W 079°40'5 9.7
2019-Feb-11 08:00N 25°54' W 079°37'6 9.8
2019-Feb-11 07:22N 25°59' W 079°32'611.4
2019-Feb-11 06:53N 26°03' W 079°28'914.0
2019-Feb-11 06:17N 26°10' W 079°23'414.7
2019-Feb-11 06:00N 26°13' W 079°20'5 0.2
2019-Feb-10 02:28N 26°07' W 079°20'715.2
2019-Feb-10 02:00N 26°03' W 079°26'816.3
2019-Feb-10 01:30N 25°57' W 079°31'816.4
2019-Feb-10 01:00N 25°49' W 079°35'917.0
2019-Feb-10 00:30N 25°41' W 079°38'816.8
2019-Feb-10 00:00N 25°33' W 079°40'916.5
2019-Feb-09 23:29N 25°24' W 079°39'  
Track history (hours):
 
Tides and Currents Weather Stations Pressure Air Temp Water Temp Dewpoint Dewpoint Depression Visibility Wind Speed Wind Dir Waves Ship Positions

Sensation

Last reported at 2019-Feb-18 06:00 UTC. Time now 2019-Feb-20 18:24 UTC.
Position N 20°24' W 072°48'.

Type: Ship. MMSI: 309697000.

Wind from 080 at 25 knots

Barometer 1017.4 mb
Air temperature 25.0 ° C
Visibility: greater than 5.4 NM
Dewpoint 23.6 ° C

Date/timePositionNaut miles runAvg speedWind from/ knotsBaromVisibWave heightAir tempDewpointWater temp
2019-Feb-18 06:00N 20°24' W 072°48'30217.8 080 / 251017.4 5.4 25.023.6
2019-Feb-17 13:00N 22°18' W 077°48'7418.5 130 / 151011.710.8 25.022.224.0
2019-Feb-17 09:00N 23°00' W 078°54'14816.5 130 / 161013.727.0 25.023.6
2019-Feb-17 00:03N 25°22' W 079°38'116.4
2019-Feb-17 00:00N 25°23' W 079°38'816.0
2019-Feb-16 23:30N 25°30' W 079°41'815.5
2019-Feb-16 23:01N 25°37' W 079°45'816.3
2019-Feb-16 22:31N 25°41' W 079°53'815.4
2019-Feb-16 22:01N 25°45' W 080°01'510.5
2019-Feb-16 21:31N 25°46' W 080°06'4 7.4
2019-Feb-16 21:00N 25°47' W 080°10'0 0.3
2019-Feb-16 20:30N 25°47' W 080°10'0 0.1
2019-Feb-16 20:00N 25°47' W 080°10'0 0.0
2019-Feb-16 19:30N 25°47' W 080°10'0 0.0
2019-Feb-16 18:58N 25°47' W 080°10'0 0.0
2019-Feb-16 18:28N 25°47' W 080°10'0 0.0
2019-Feb-16 17:58N 25°47' W 080°10'0 0.0
2019-Feb-16 17:28N 25°47' W 080°10'0 0.0
2019-Feb-16 16:58N 25°47' W 080°10'0 0.0
2019-Feb-16 16:28N 25°47' W 080°10'0 0.0
2019-Feb-16 15:58N 25°47' W 080°10'0 0.0
2019-Feb-16 15:28N 25°47' W 080°10'0 0.0
2019-Feb-16 14:58N 25°47' W 080°10'0 0.0
2019-Feb-16 14:28N 25°47' W 080°10'0 0.0
2019-Feb-16 13:58N 25°47' W 080°10'0 0.0
2019-Feb-16 13:28N 25°47' W 080°10'0 0.0
2019-Feb-16 12:58N 25°47' W 080°10'0 0.0
2019-Feb-16 12:28N 25°47' W 080°10'0 0.0
2019-Feb-16 11:49N 25°47' W 080°10'0 0.0
2019-Feb-16 11:28N 25°47' W 080°10'0 0.1
2019-Feb-16 11:00N 25°47' W 080°10'2 3.3
2019-Feb-16 10:30N 25°46' W 080°09'611.7
2019-Feb-16 10:00N 25°46' W 080°02'510.6
2019-Feb-16 09:30N 25°43' W 079°58'611.6
2019-Feb-16 09:00N 25°37' W 079°56'815.1
2019-Feb-16 08:30N 25°30' W 079°56'815.1
2019-Feb-16 08:00N 25°22' W 079°56'815.5
2019-Feb-16 07:30N 25°14' W 079°58'1019.7
2019-Feb-16 07:00N 25°05' W 080°00'32818.2
2019-Feb-15 13:00N 22°06' W 085°00'51510.5 120 / 181009.110.8 24.021.125.0
2019-Feb-13 12:00N 18°42' W 076°36'43012.1 120 / 251010.310.8 26.023.225.0
2019-Feb-12 00:21N 25°18' W 079°37'515.6
2019-Feb-12 00:00N 25°23' W 079°38'815.3
2019-Feb-11 23:30N 25°30' W 079°40'714.8
2019-Feb-11 23:00N 25°36' W 079°45'815.9
2019-Feb-11 22:30N 25°40' W 079°52'815.4
2019-Feb-11 22:00N 25°44' W 079°60'510.9
2019-Feb-11 21:31N 25°46' W 080°05'4 8.5
2019-Feb-11 21:01N 25°47' W 080°10'0 0.1
2019-Feb-11 20:25N 25°47' W 080°10'0 0.0
2019-Feb-11 19:58N 25°47' W 080°10'0 0.0
2019-Feb-11 19:28N 25°47' W 080°10'0 0.0
2019-Feb-11 18:58N 25°47' W 080°10'0 0.0
2019-Feb-11 18:28N 25°47' W 080°10'0 0.0
2019-Feb-11 17:58N 25°47' W 080°10'0 0.0
2019-Feb-11 17:28N 25°47' W 080°10'0 0.0
2019-Feb-11 16:58N 25°47' W 080°10'0 0.0
2019-Feb-11 16:28N 25°47' W 080°10'0 0.0
2019-Feb-11 15:58N 25°47' W 080°10'0 0.0
2019-Feb-11 15:28N 25°47' W 080°10'0 0.0
2019-Feb-11 14:58N 25°47' W 080°10'0 0.0
2019-Feb-11 14:28N 25°47' W 080°10'0 0.0
2019-Feb-11 13:58N 25°47' W 080°10'0 0.0
2019-Feb-11 13:28N 25°47' W 080°10'0 0.0
2019-Feb-11 12:58N 25°47' W 080°10'0 0.0
2019-Feb-11 12:28N 25°47' W 080°10'0 0.1
2019-Feb-11 12:01N 25°47' W 080°10'0 0.5
2019-Feb-11 11:30N 25°47' W 080°10'4 8.3
2019-Feb-11 11:00N 25°46' W 080°05'4 7.7
2019-Feb-11 10:31N 25°46' W 080°01'5 9.1
2019-Feb-11 10:00N 25°47' W 079°56'5 9.9
2019-Feb-11 09:30N 25°47' W 079°51'510.7
2019-Feb-11 09:00N 25°47' W 079°45'5 9.5
2019-Feb-11 08:30N 25°50' W 079°40'5 9.7
2019-Feb-11 08:00N 25°54' W 079°37'6 9.8
2019-Feb-11 07:22N 25°59' W 079°32'611.4
2019-Feb-11 06:53N 26°03' W 079°28'914.0
2019-Feb-11 06:17N 26°10' W 079°23'414.7
2019-Feb-11 06:00N 26°13' W 079°20'5 0.2
2019-Feb-10 02:28N 26°07' W 079°20'715.2
2019-Feb-10 02:00N 26°03' W 079°26'816.3
2019-Feb-10 01:30N 25°57' W 079°31'816.4
2019-Feb-10 01:00N 25°49' W 079°35'917.0
2019-Feb-10 00:30N 25°41' W 079°38'816.8
2019-Feb-10 00:00N 25°33' W 079°40'916.5
2019-Feb-09 23:29N 25°24' W 079°39'  

Dump ship's entire track history